createdAt,value
2019-04-10T00:00:10.638Z,42.13
2019-04-10T00:02:40.561Z,43.43
2019-04-10T00:05:09.710Z,43.30
2019-04-10T00:07:39.603Z,41.03
2019-04-10T00:10:07.745Z,40.37
2019-04-10T00:12:33.931Z,40.90
2019-04-10T00:15:18.814Z,43.07
2019-04-10T00:17:45.127Z,44.10
2019-04-10T00:20:18.380Z,43.07
2019-04-10T00:22:44.999Z,44.70
2019-04-10T00:25:12.674Z,43.30
2019-04-10T00:27:38.959Z,45.40
2019-04-10T00:30:13.235Z,43.60
2019-04-10T00:32:41.303Z,42.73
2019-04-10T00:35:12.928Z,43.73
2019-04-10T00:37:47.191Z,41.77
2019-04-10T00:40:15.333Z,43.77
2019-04-10T00:42:43.569Z,46.03
2019-04-10T00:45:17.391Z,44.20
2019-04-10T00:47:48.897Z,43.07
2019-04-10T00:50:23.113Z,45.37
2019-04-10T00:52:57.357Z,42.83
2019-04-10T00:55:25.815Z,43.87
2019-04-10T00:57:56.104Z,44.03
2019-04-10T01:00:25.540Z,43.20
2019-04-10T01:03:07.584Z,45.73
2019-04-10T01:05:33.780Z,44.00
2019-04-10T01:08:00.194Z,45.20
2019-04-10T01:10:36.605Z,42.90
2019-04-10T01:13:08.638Z,42.67
2019-04-10T01:15:36.463Z,42.03
2019-04-10T01:18:02.629Z,42.70
2019-04-10T01:20:34.542Z,41.73
2019-04-10T01:23:06.010Z,40.93
2019-04-10T01:25:40.871Z,41.47
2019-04-10T01:28:19.363Z,41.97
2019-04-10T01:30:48.653Z,40.33
2019-04-10T01:33:20.688Z,40.10
2019-04-10T01:35:43.002Z,37.43
2019-04-10T01:38:18.301Z,38.07
2019-04-10T01:40:53.146Z,39.53
2019-04-10T01:43:20.654Z,37.67
2019-04-10T01:45:49.712Z,35.80
2019-04-10T01:48:37.204Z,34.03
2019-04-10T01:51:04.258Z,32.50
2019-04-10T01:53:31.144Z,35.60
2019-04-10T01:55:57.635Z,33.40
2019-04-10T01:58:23.999Z,33.13
2019-04-10T02:00:54.235Z,31.90
2019-04-10T02:03:23.461Z,32.63
2019-04-10T02:05:52.782Z,32.20
2019-04-10T02:08:27.786Z,31.67
2019-04-10T02:10:53.980Z,31.50
2019-04-10T02:13:29.695Z,32.30
2019-04-10T02:15:56.671Z,31.10
2019-04-10T02:18:23.507Z,30.50
2019-04-10T02:20:49.802Z,29.20
2019-04-10T02:23:16.907Z,30.20
2019-04-10T02:25:45.155Z,31.00
2019-04-10T02:28:18.636Z,29.10
2019-04-10T02:30:45.966Z,28.77
2019-04-10T02:33:17.640Z,29.00
2019-04-10T02:35:45.267Z,26.87
2019-04-10T02:38:32.693Z,27.50
2019-04-10T02:40:43.569Z,26.90
2019-04-10T02:43:12.438Z,26.93
2019-04-10T02:45:47.038Z,25.20
2019-04-10T02:48:15.063Z,25.80
2019-04-10T02:50:43.228Z,26.10
2019-04-10T02:53:15.317Z,25.73
2019-04-10T02:55:49.259Z,26.10
2019-04-10T02:58:18.427Z,23.90
2019-04-10T03:00:54.857Z,23.60
2019-04-10T03:03:31.818Z,25.27
2019-04-10T03:06:00.902Z,23.10
2019-04-10T03:08:46.794Z,22.83
2019-04-10T03:11:02.675Z,24.07
2019-04-10T03:13:27.564Z,21.23
2019-04-10T03:15:59.770Z,22.50
2019-04-10T03:18:27.150Z,21.67
2019-04-10T03:21:00.009Z,22.97
2019-04-10T03:23:32.193Z,23.97
2019-04-10T03:26:01.497Z,21.77
2019-04-10T03:28:31.997Z,22.00
2019-04-10T03:31:02.831Z,23.20
2019-04-10T03:33:37.499Z,22.73
2019-04-10T03:36:03.098Z,22.00
2019-04-10T03:38:49.692Z,23.13
2019-04-10T03:41:06.045Z,23.87
2019-04-10T03:43:34.410Z,21.50
2019-04-10T03:46:03.342Z,20.90
2019-04-10T03:48:33.476Z,23.47
2019-04-10T03:51:02.013Z,23.40
2019-04-10T03:53:29.913Z,22.20
2019-04-10T03:55:57.178Z,22.80
2019-04-10T03:58:29.431Z,22.27
2019-04-10T04:00:55.619Z,22.10
2019-04-10T04:03:22.909Z,22.10
2019-04-10T04:05:53.180Z,22.30
2019-04-10T04:08:22.295Z,21.90
2019-04-10T04:10:53.131Z,21.83
2019-04-10T04:13:21.656Z,20.33
2019-04-10T04:15:50.601Z,21.10
2019-04-10T04:18:19.347Z,21.57
2019-04-10T04:20:50.902Z,22.70
2019-04-10T04:23:19.431Z,21.53
2019-04-10T04:25:48.316Z,21.23
2019-04-10T04:28:27.903Z,22.73
2019-04-10T04:30:56.812Z,22.70
2019-04-10T04:33:23.289Z,23.33
2019-04-10T04:35:55.386Z,21.20
2019-04-10T04:38:25.628Z,21.97
2019-04-10T04:40:52.877Z,21.40
2019-04-10T04:43:25.185Z,21.27
2019-04-10T04:45:55.428Z,22.93
2019-04-10T04:48:29.374Z,21.63
2019-04-10T04:51:04.002Z,21.37
2019-04-10T04:53:36.402Z,22.43
2019-04-10T04:55:59.932Z,20.33
2019-04-10T04:58:31.213Z,21.57
2019-04-10T05:00:58.481Z,22.50
2019-04-10T05:03:28.981Z,21.87
2019-04-10T05:05:56.192Z,20.37
2019-04-10T05:08:28.343Z,22.30
2019-04-10T05:10:56.039Z,20.57
2019-04-10T05:13:24.293Z,22.03
2019-04-10T05:15:51.355Z,20.50
2019-04-10T05:18:21.268Z,21.50
2019-04-10T05:20:50.482Z,22.30
2019-04-10T05:23:22.449Z,23.00
2019-04-10T05:25:53.961Z,21.17
2019-04-10T05:28:31.061Z,21.60
2019-04-10T05:31:01.448Z,20.60
2019-04-10T05:33:33.191Z,23.33
2019-04-10T05:36:02.733Z,22.23
2019-04-10T05:38:35.636Z,22.57
2019-04-10T05:41:04.698Z,22.83
2019-04-10T05:43:36.932Z,21.23
2019-04-10T05:46:08.393Z,22.90
2019-04-10T05:48:36.644Z,21.80
2019-04-10T05:51:12.570Z,22.13
2019-04-10T05:53:40.903Z,23.03
2019-04-10T05:56:16.075Z,33.37
2019-04-10T05:58:46.895Z,48.70
2019-04-10T06:01:13.559Z,34.90
2019-04-10T06:03:47.155Z,28.77
2019-04-10T06:06:22.210Z,27.87
2019-04-10T06:08:58.363Z,28.40
2019-04-10T06:11:28.845Z,32.77
2019-04-10T06:13:59.047Z,33.70
2019-04-10T06:16:28.259Z,26.87
2019-04-10T06:19:07.696Z,23.90
2019-04-10T06:21:37.637Z,24.70
2019-04-10T06:24:09.829Z,26.13
2019-04-10T06:26:37.573Z,25.93
2019-04-10T06:29:07.124Z,22.67
2019-04-10T06:31:34.266Z,24.07
2019-04-10T06:34:11.149Z,22.97
2019-04-10T06:36:39.662Z,22.90
2019-04-10T06:39:08.743Z,24.10
2019-04-10T06:41:38.955Z,24.03
2019-04-10T06:44:05.819Z,24.30
2019-04-10T06:46:37.958Z,25.70
2019-04-10T06:49:05.599Z,25.27
2019-04-10T06:51:33.433Z,24.07
2019-04-10T06:54:12.641Z,25.60
2019-04-10T06:56:41.523Z,25.80
2019-04-10T06:59:08.741Z,26.50
2019-04-10T07:01:44.366Z,26.73
2019-04-10T07:04:10.116Z,25.53
2019-04-10T07:06:55.954Z,25.60
2019-04-10T07:09:24.538Z,26.90
2019-04-10T07:11:56.819Z,24.37
2019-04-10T07:14:35.149Z,25.40
2019-04-10T07:17:06.973Z,26.37
2019-04-10T07:19:43.938Z,27.07
2019-04-10T07:22:14.265Z,25.07
2019-04-10T07:24:42.652Z,26.33
2019-04-10T07:27:16.712Z,27.60
2019-04-10T07:29:44.649Z,26.17
2019-04-10T07:32:13.647Z,27.40
2019-04-10T07:34:46.739Z,25.33
2019-04-10T07:37:17.672Z,25.77
2019-04-10T07:39:55.081Z,25.50
2019-04-10T07:42:31.273Z,26.83
2019-04-10T07:45:06.566Z,24.73
2019-04-10T07:47:39.905Z,25.40
2019-04-10T07:50:08.812Z,26.47
2019-04-10T07:52:38.271Z,25.83
2019-04-10T07:55:06.742Z,27.23
2019-04-10T07:57:51.758Z,26.17
2019-04-10T08:00:25.050Z,25.43
2019-04-10T08:02:51.244Z,22.73
2019-04-10T08:05:19.468Z,24.67
2019-04-10T08:07:53.368Z,24.63
2019-04-10T08:10:24.165Z,25.70
2019-04-10T08:12:54.175Z,23.90
2019-04-10T08:15:25.270Z,24.63
2019-04-10T08:18:00.695Z,24.70
2019-04-10T08:20:28.592Z,24.47
2019-04-10T08:22:55.331Z,24.43
2019-04-10T08:25:35.393Z,24.50
2019-04-10T08:28:04.081Z,24.57
2019-04-10T08:30:34.109Z,25.00
2019-04-10T08:33:11.958Z,24.53
2019-04-10T08:35:40.158Z,23.30
2019-04-10T08:38:09.681Z,26.10
2019-04-10T08:40:43.902Z,25.63
2019-04-10T08:43:13.853Z,25.50
2019-04-10T08:45:48.098Z,23.80
2019-04-10T08:48:12.042Z,24.23
2019-04-10T08:50:39.254Z,26.07
2019-04-10T08:53:07.594Z,23.70
2019-04-10T08:55:40.756Z,24.83
2019-04-10T08:58:10.310Z,26.10
2019-04-10T09:00:37.706Z,25.30
2019-04-10T09:03:08.793Z,23.20
2019-04-10T09:05:45.052Z,24.57
2019-04-10T09:08:14.946Z,25.53
2019-04-10T09:10:41.213Z,24.43
2019-04-10T09:13:16.769Z,23.87
2019-04-10T09:15:47.972Z,25.57
2019-04-10T09:18:16.870Z,24.30
2019-04-10T09:20:44.474Z,25.43
2019-04-10T09:23:40.994Z,24.77
2019-04-10T09:25:47.555Z,23.97
2019-04-10T09:28:16.068Z,24.73
2019-04-10T09:30:45.465Z,23.30
2019-04-10T09:33:26.025Z,26.13
2019-04-10T09:35:50.941Z,25.47
2019-04-10T09:38:17.043Z,24.63
2019-04-10T09:40:44.612Z,24.73
2019-04-10T09:43:17.759Z,24.50
2019-04-10T09:45:45.856Z,23.53
2019-04-10T09:48:13.103Z,23.63
2019-04-10T09:50:46.626Z,25.30
2019-04-10T09:53:22.974Z,24.13
2019-04-10T09:55:52.458Z,23.93
2019-04-10T09:58:33.963Z,23.33
2019-04-10T10:01:06.659Z,24.90
2019-04-10T10:03:40.135Z,23.90
2019-04-10T10:06:25.123Z,23.23
2019-04-10T10:08:48.776Z,24.37
2019-04-10T10:11:18.435Z,23.57
2019-04-10T10:13:54.288Z,24.17
2019-04-10T10:16:23.865Z,24.87
2019-04-10T10:18:51.977Z,24.50
2019-04-10T10:21:28.813Z,26.70
2019-04-10T10:23:58.232Z,25.50
2019-04-10T10:26:28.072Z,25.40
2019-04-10T10:29:04.814Z,21.53
2019-04-10T10:31:43.019Z,25.07
2019-04-10T10:34:18.464Z,23.73
2019-04-10T10:36:52.871Z,26.13
2019-04-10T10:39:19.176Z,24.60
2019-04-10T10:41:51.097Z,24.00
2019-04-10T10:44:27.463Z,24.30
2019-04-10T10:46:55.706Z,24.97
2019-04-10T10:49:22.776Z,23.30
2019-04-10T10:51:48.992Z,27.20
2019-04-10T10:54:15.057Z,24.33
2019-04-10T10:56:41.143Z,25.27
2019-04-10T10:59:07.377Z,23.60
2019-04-10T11:01:33.762Z,23.57
2019-04-10T11:04:04.988Z,23.50
2019-04-10T11:06:33.669Z,21.90
2019-04-10T11:08:59.941Z,23.00
2019-04-10T11:11:36.976Z,22.47
2019-04-10T11:14:15.120Z,21.47
2019-04-10T11:16:56.321Z,21.40
2019-04-10T11:19:31.229Z,21.80
2019-04-10T11:21:58.786Z,23.80
2019-04-10T11:24:35.652Z,22.63
2019-04-10T11:27:09.871Z,22.90
2019-04-10T11:29:42.735Z,21.70
2019-04-10T11:32:33.936Z,21.53
2019-04-10T11:35:03.285Z,21.57
2019-04-10T11:37:49.285Z,20.47
2019-04-10T11:40:17.908Z,20.30
2019-04-10T11:42:46.946Z,21.97
2019-04-10T11:45:18.590Z,22.00
2019-04-10T11:47:45.005Z,22.33
2019-04-10T11:50:21.620Z,21.30
2019-04-10T11:52:55.978Z,20.83
2019-04-10T11:55:29.783Z,20.03
2019-04-10T11:58:00.093Z,21.30
2019-04-10T12:00:50.314Z,22.17
2019-04-10T12:03:15.906Z,21.37
2019-04-10T12:05:55.191Z,21.03
2019-04-10T12:08:46.400Z,21.53
2019-04-10T12:13:26.150Z,19.60
2019-04-10T12:16:12.558Z,19.10
2019-04-10T12:18:42.582Z,20.33
2019-04-10T12:21:09.808Z,19.50
2019-04-10T12:23:38.942Z,18.73
2019-04-10T12:26:07.499Z,20.40
2019-04-10T12:28:34.611Z,20.00
2019-04-10T12:31:02.478Z,19.57
2019-04-10T12:33:31.748Z,20.30
2019-04-10T12:35:58.240Z,19.87
2019-04-10T12:38:25.573Z,18.97
2019-04-10T12:40:55.333Z,18.30
2019-04-10T12:43:25.906Z,18.53
2019-04-10T12:45:53.160Z,18.97
2019-04-10T12:48:28.518Z,21.00
2019-04-10T12:50:57.169Z,19.53
2019-04-10T12:53:24.509Z,17.90
2019-04-10T12:55:51.797Z,18.80
2019-04-10T12:58:19.313Z,18.53
2019-04-10T13:00:59.060Z,19.60
2019-04-10T13:03:27.281Z,18.93
2019-04-10T13:06:07.436Z,19.10
2019-04-10T13:08:52.518Z,19.90
2019-04-10T13:11:10.226Z,19.20
2019-04-10T13:13:38.904Z,19.50
2019-04-10T13:16:06.394Z,19.10
2019-04-10T13:18:36.922Z,19.60
2019-04-10T13:21:04.281Z,18.57
2019-04-10T13:23:39.619Z,17.60
2019-04-10T13:26:17.618Z,19.20
2019-04-10T13:28:44.054Z,18.33
2019-04-10T13:31:17.980Z,17.60
2019-04-10T13:33:45.015Z,18.90
2019-04-10T13:36:17.587Z,16.17
2019-04-10T13:38:44.404Z,16.93
2019-04-10T13:41:21.383Z,18.53
2019-04-10T13:44:04.535Z,18.20
2019-04-10T13:46:49.139Z,18.37
2019-04-10T13:49:15.204Z,17.90
2019-04-10T13:51:50.285Z,16.53
2019-04-10T13:54:22.773Z,17.77
2019-04-10T13:57:04.044Z,16.90
2019-04-10T13:59:31.277Z,17.10
2019-04-10T14:02:03.308Z,16.60
2019-04-10T14:04:44.546Z,16.80
2019-04-10T14:07:13.259Z,16.07
2019-04-10T14:09:47.091Z,16.47
2019-04-10T14:12:14.476Z,17.70
2019-04-10T14:14:45.428Z,17.40
2019-04-10T14:17:14.605Z,17.23
2019-04-10T14:19:42.020Z,17.20
2019-04-10T14:22:14.025Z,17.07
2019-04-10T14:24:48.946Z,17.13
2019-04-10T14:27:24.464Z,17.30
2019-04-10T14:30:00.814Z,18.77
2019-04-10T14:32:29.966Z,18.63
2019-04-10T14:34:56.384Z,17.00
2019-04-10T14:37:23.909Z,16.60
2019-04-10T14:39:52.280Z,17.80
2019-04-10T14:42:20.339Z,18.97
2019-04-10T14:44:59.558Z,18.40
2019-04-10T14:47:32.241Z,18.10
2019-04-10T14:50:13.721Z,20.53
2019-04-10T14:52:43.335Z,19.17
2019-04-10T14:55:20.533Z,19.47
2019-04-10T14:57:48.433Z,18.87
2019-04-10T15:00:33.357Z,19.10
2019-04-10T15:03:00.624Z,19.63
2019-04-10T15:05:44.892Z,19.17
2019-04-10T15:08:07.163Z,18.87
2019-04-10T15:10:33.444Z,19.77
2019-04-10T15:13:09.049Z,19.87
2019-04-10T15:15:38.726Z,19.93
2019-04-10T15:18:04.990Z,18.37
2019-04-10T15:20:39.692Z,19.33
2019-04-10T15:23:10.042Z,20.50
2019-04-10T15:25:49.306Z,19.23
2019-04-10T15:28:20.367Z,20.40
2019-04-10T15:30:59.883Z,19.60
2019-04-10T15:33:29.214Z,20.27
2019-04-10T15:35:57.606Z,25.53
2019-04-10T15:38:30.368Z,17.50
2019-04-10T15:41:02.960Z,17.77
2019-04-10T15:43:29.440Z,18.70
2019-04-10T15:46:02.331Z,19.43
2019-04-10T15:48:35.622Z,18.47
2019-04-10T15:51:03.594Z,18.10
2019-04-10T15:53:32.184Z,18.40
2019-04-10T15:56:07.570Z,18.80
2019-04-10T15:58:53.169Z,18.53
2019-04-10T16:01:21.660Z,20.17
2019-04-10T16:03:50.597Z,18.93
2019-04-10T16:06:17.488Z,18.70
2019-04-10T16:08:46.495Z,19.70
2019-04-10T16:11:21.498Z,19.23
2019-04-10T16:13:53.234Z,18.03
2019-04-10T16:16:25.421Z,18.00
2019-04-10T16:18:53.501Z,18.10
2019-04-10T16:21:20.567Z,18.63
2019-04-10T16:24:00.473Z,18.60
2019-04-10T16:26:29.223Z,19.40
2019-04-10T16:29:02.027Z,19.37
2019-04-10T16:31:28.302Z,18.60
2019-04-10T16:33:56.714Z,19.60
2019-04-10T16:36:23.457Z,23.30
2019-04-10T16:38:51.794Z,30.47
2019-04-10T16:41:19.443Z,20.30
2019-04-10T16:43:46.686Z,25.20
2019-04-10T16:46:13.269Z,20.70
2019-04-10T16:48:40.018Z,21.20
2019-04-10T16:51:06.628Z,22.00
2019-04-10T16:53:32.713Z,21.50
2019-04-10T16:55:59.099Z,20.77
2019-04-10T16:58:27.816Z,18.90
2019-04-10T17:00:54.020Z,18.90
2019-04-10T17:03:20.206Z,18.40
2019-04-10T17:05:46.316Z,25.33
2019-04-10T17:08:16.774Z,19.97
2019-04-10T17:10:52.583Z,20.60
2019-04-10T17:13:18.800Z,20.73
2019-04-10T17:15:48.973Z,20.00
2019-04-10T17:18:19.076Z,19.40
2019-04-10T17:20:45.061Z,19.97
2019-04-10T17:23:13.292Z,18.60
2019-04-10T17:25:40.245Z,23.47
2019-04-10T17:28:06.369Z,21.67
2019-04-10T17:30:33.781Z,18.93
2019-04-10T17:33:02.726Z,20.53
2019-04-10T17:35:31.725Z,19.00
2019-04-10T17:38:02.411Z,20.47
2019-04-10T17:40:35.436Z,23.43
2019-04-10T17:42:58.869Z,24.40
2019-04-10T17:45:29.208Z,20.90
2019-04-10T17:48:05.194Z,20.60
2019-04-10T17:50:39.350Z,21.70
2019-04-10T17:53:18.483Z,21.00
2019-04-10T17:55:47.360Z,21.17
2019-04-10T17:58:17.107Z,21.13
2019-04-10T18:00:51.821Z,19.93
2019-04-10T18:03:21.292Z,19.90
2019-04-10T18:05:55.128Z,19.00
2019-04-10T18:08:28.443Z,20.17
2019-04-10T18:11:06.339Z,23.97
2019-04-10T18:13:36.726Z,22.90
2019-04-10T18:16:09.172Z,20.17
2019-04-10T18:18:42.596Z,18.30
2019-04-10T18:21:12.967Z,18.27
2019-04-10T18:23:45.533Z,17.73
2019-04-10T18:26:14.759Z,18.13
2019-04-10T18:28:50.564Z,18.40
2019-04-10T18:31:36.802Z,17.60
2019-04-10T18:34:10.959Z,17.80
2019-04-10T18:36:54.543Z,18.40
2019-04-10T18:39:41.371Z,18.10
2019-04-10T18:42:19.342Z,18.33
2019-04-10T18:44:59.437Z,20.17
2019-04-10T18:47:30.886Z,17.60
2019-04-10T18:50:04.669Z,17.80
2019-04-10T18:52:32.829Z,18.00
2019-04-10T18:55:01.626Z,18.40
2019-04-10T18:57:39.366Z,17.57
2019-04-10T19:00:24.041Z,17.17
2019-04-10T19:03:07.549Z,18.50
2019-04-10T19:06:02.604Z,18.03
2019-04-10T19:08:32.171Z,18.17
2019-04-10T19:11:14.812Z,18.50
2019-04-10T19:13:38.639Z,17.80
2019-04-10T19:16:12.985Z,17.77
2019-04-10T19:18:41.085Z,17.17
2019-04-10T19:21:08.346Z,17.50
2019-04-10T19:23:43.460Z,18.30
2019-04-10T19:26:15.495Z,16.07
2019-04-10T19:28:46.513Z,17.73
2019-04-10T19:31:23.035Z,16.57
2019-04-10T19:33:59.179Z,16.93
2019-04-10T19:36:50.160Z,16.93
2019-04-10T19:39:20.314Z,18.00
2019-04-10T19:41:57.564Z,17.17
2019-04-10T19:44:25.088Z,17.00
2019-04-10T19:46:58.745Z,16.67
2019-04-10T19:49:35.000Z,15.90
2019-04-10T19:52:04.581Z,15.57
2019-04-10T19:54:42.964Z,15.80
2019-04-10T19:57:13.141Z,15.40
2019-04-10T19:59:44.083Z,16.37
2019-04-10T20:02:22.567Z,19.93
2019-04-10T20:04:52.769Z,16.53
2019-04-10T20:07:22.853Z,16.63
2019-04-10T20:09:51.095Z,15.67
2019-04-10T20:12:20.267Z,15.63
2019-04-10T20:14:53.560Z,13.67
2019-04-10T20:17:19.946Z,15.60
2019-04-10T20:19:54.160Z,15.00
2019-04-10T20:22:23.027Z,14.43
2019-04-10T20:24:53.500Z,15.37
2019-04-10T20:27:21.842Z,14.20
2019-04-10T20:29:57.253Z,14.20
2019-04-10T20:32:30.675Z,14.60
2019-04-10T20:34:58.026Z,15.80
2019-04-10T20:37:25.550Z,14.50
2019-04-10T20:39:55.875Z,14.40
2019-04-10T20:42:24.084Z,14.93
2019-04-10T20:44:53.360Z,15.37
2019-04-10T20:47:22.599Z,14.47
2019-04-10T20:49:51.165Z,14.60
2019-04-10T20:52:17.937Z,15.13
2019-04-10T20:54:53.368Z,15.97
2019-04-10T20:57:21.463Z,15.00
2019-04-10T20:59:48.903Z,15.57
2019-04-10T21:02:22.452Z,16.20
2019-04-10T21:05:06.331Z,15.20
2019-04-10T21:07:39.614Z,14.70
2019-04-10T21:10:15.290Z,15.10
2019-04-10T21:12:44.726Z,15.03
2019-04-10T21:15:11.264Z,15.70
2019-04-10T21:17:43.437Z,15.33
2019-04-10T21:20:12.838Z,15.30
2019-04-10T21:22:40.464Z,15.17
2019-04-10T21:25:10.204Z,14.63
2019-04-10T21:27:51.719Z,15.47
2019-04-10T21:30:19.946Z,15.70
2019-04-10T21:32:53.895Z,16.07
2019-04-10T21:35:27.110Z,16.43
2019-04-10T21:37:55.403Z,17.03
2019-04-10T21:40:27.180Z,15.53
2019-04-10T21:43:03.639Z,17.13
2019-04-10T21:45:45.574Z,16.47
2019-04-10T21:48:15.063Z,18.33
2019-04-10T21:50:49.655Z,17.50
2019-04-10T21:53:19.943Z,18.10
2019-04-10T21:55:56.892Z,17.20
2019-04-10T21:58:24.111Z,18.07
2019-04-10T22:00:57.082Z,17.80
2019-04-10T22:03:25.364Z,16.97
2019-04-10T22:06:18.122Z,17.17
2019-04-10T22:08:59.062Z,18.13
2019-04-10T22:11:32.895Z,18.97
2019-04-10T22:14:08.848Z,19.00
2019-04-10T22:16:38.021Z,18.40
2019-04-10T22:19:06.127Z,17.77
2019-04-10T22:21:37.588Z,17.83
2019-04-10T22:24:21.585Z,19.13
2019-04-10T22:27:01.604Z,19.73
2019-04-10T22:29:34.742Z,18.93
2019-04-10T22:32:16.313Z,19.07
2019-04-10T22:34:46.584Z,20.00
2019-04-10T22:37:24.089Z,19.37
2019-04-10T22:39:56.719Z,19.40
2019-04-10T22:42:37.350Z,20.07
2019-04-10T22:45:02.463Z,19.37
2019-04-10T22:47:45.288Z,18.63
2019-04-10T22:50:16.734Z,19.00
2019-04-10T22:52:50.773Z,20.10
2019-04-10T22:55:17.875Z,19.10
2019-04-10T22:57:58.896Z,20.90
2019-04-10T23:00:32.710Z,20.30
2019-04-10T23:03:01.239Z,21.10
2019-04-10T23:05:44.758Z,20.40
2019-04-10T23:08:11.571Z,20.70
2019-04-10T23:10:43.472Z,20.53
2019-04-10T23:13:15.994Z,21.10
2019-04-10T23:15:44.325Z,21.40
2019-04-10T23:18:11.515Z,19.83
2019-04-10T23:20:48.099Z,21.13
2019-04-10T23:23:17.635Z,20.17
2019-04-10T23:25:46.783Z,19.63
2019-04-10T23:28:17.619Z,19.73
2019-04-10T23:30:45.452Z,20.67
2019-04-10T23:33:18.343Z,21.27
2019-04-10T23:35:45.805Z,21.93
2019-04-10T23:38:23.448Z,20.37
2019-04-10T23:40:51.431Z,21.47
2019-04-10T23:43:21.073Z,20.60
2019-04-10T23:45:48.818Z,20.70
2019-04-10T23:48:17.033Z,20.50
2019-04-10T23:50:52.867Z,22.07
2019-04-10T23:53:21.127Z,20.67
2019-04-10T23:55:58.812Z,22.17
2019-04-10T23:58:38.032Z,21.77
